Time;durP1;ratioP1;P1;durP2;ratioP2;P2;SDS_P1;SDS_P2;PMS_P1;PMS_P2;Temp;Humidity;BMP_temperature;BMP_pressure;BME280_temperature;BME280_humidity;BME280_pressure;Samples;Min_cycle;Max_cycle;Signal;HPM_P1;HPM_P2
2022/10/01 00:01:08;;;;;;;4.70;4.30;;;9.90;93.50;;;;;;937908;148;27330;-80
2022/10/01 00:03:35;;;;;;;5.37;4.83;;;9.90;93.60;;;;;;937518;148;27346;-80
2022/10/01 00:06:10;;;;;;;4.70;4.30;;;9.80;93.60;;;;;;937335;148;27435;-80
2022/10/01 00:08:37;;;;;;;4.87;4.47;;;9.80;93.70;;;;;;945443;146;27374;-80
2022/10/01 00:11:13;;;;;;;5.30;4.73;;;9.80;93.70;;;;;;949746;147;27315;-79
2022/10/01 00:13:39;;;;;;;5.43;4.70;;;9.80;93.90;;;;;;951171;147;27792;-79
2022/10/01 00:16:06;;;;;;;5.10;4.60;;;9.80;93.90;;;;;;950828;147;27316;-79
2022/10/01 00:18:32;;;;;;;5.03;4.53;;;9.80;94.10;;;;;;944118;148;27353;-78
2022/10/01 00:20:59;;;;;;;5.33;4.83;;;9.80;94.20;;;;;;944090;148;27351;-79
2022/10/01 00:23:25;;;;;;;5.97;4.83;;;9.80;94.30;;;;;;944247;148;27288;-79
2022/10/01 00:25:52;;;;;;;5.33;4.83;;;9.80;94.40;;;;;;945525;148;27298;-79
2022/10/01 00:28:18;;;;;;;6.47;4.80;;;9.80;94.60;;;;;;943399;148;27365;-79
2022/10/01 00:30:48;;;;;;;5.20;4.70;;;9.80;94.60;;;;;;944550;148;27355;-79
2022/10/01 00:33:15;;;;;;;4.83;4.43;;;9.80;94.80;;;;;;944101;148;27371;-79
2022/10/01 00:35:41;;;;;;;5.00;4.50;;;9.80;94.90;;;;;;944272;148;27292;-78
2022/10/01 00:38:08;;;;;;;6.00;4.33;;;9.80;94.90;;;;;;943436;148;27297;-79
2022/10/01 00:40:34;;;;;;;7.00;4.27;;;9.80;95.00;;;;;;945059;148;27282;-79
2022/10/01 00:43:01;;;;;;;4.80;4.20;;;9.80;95.00;;;;;;944409;148;27804;-78
2022/10/01 00:45:28;;;;;;;5.43;4.60;;;9.80;95.00;;;;;;945238;148;27337;-78
2022/10/01 00:47:54;;;;;;;5.93;4.90;;;9.80;95.20;;;;;;944132;148;27338;-79
2022/10/01 00:50:27;;;;;;;4.93;4.40;;;9.80;95.30;;;;;;943770;148;27329;-78
2022/10/01 00:52:53;;;;;;;4.90;4.37;;;9.80;95.30;;;;;;943948;148;27821;-80
2022/10/01 00:55:20;;;;;;;4.87;4.20;;;9.90;95.40;;;;;;944054;148;27430;-79
2022/10/01 00:57:46;;;;;;;5.33;4.30;;;9.90;95.40;;;;;;944267;148;27349;-79
2022/10/01 01:00:13;;;;;;;5.20;3.93;;;9.80;95.50;;;;;;944736;148;27281;-78
2022/10/01 01:02:39;;;;;;;4.93;4.43;;;9.80;95.50;;;;;;944051;148;27257;-78
2022/10/01 01:05:07;;;;;;;6.80;4.53;;;9.90;95.70;;;;;;943698;148;27351;-79
2022/10/01 01:07:32;;;;;;;4.70;4.30;;;9.90;95.90;;;;;;944713;148;27344;-79
2022/10/01 01:09:59;;;;;;;4.20;3.80;;;9.90;95.90;;;;;;944432;148;28422;-79
2022/10/01 01:12:28;;;;;;;4.77;4.00;;;9.90;96.00;;;;;;940727;149;27348;-79
2022/10/01 01:15:10;;;;;;;5.40;4.40;;;9.90;96.00;;;;;;935726;151;27301;-79
2022/10/01 01:17:45;;;;;;;5.70;4.03;;;10.00;96.20;;;;;;942805;148;27969;-79
2022/10/01 01:20:30;;;;;;;4.47;4.07;;;10.00;96.40;;;;;;937578;148;27772;-81
2022/10/01 01:23:17;;;;;;;5.10;4.47;;;10.00;96.50;;;;;;937642;152;27263;-79
2022/10/01 01:25:47;;;;;;;4.07;3.73;;;10.00;96.50;;;;;;934465;148;27297;-79
2022/10/01 01:28:16;;;;;;;4.03;3.73;;;10.10;96.50;;;;;;937187;148;27950;-79
2022/10/01 01:30:43;;;;;;;5.53;4.40;;;10.10;96.60;;;;;;939145;149;27960;-79
2022/10/01 01:33:12;;;;;;;3.50;3.20;;;10.10;96.80;;;;;;937664;148;27350;-79
2022/10/01 01:35:39;;;;;;;4.30;4.00;;;10.20;96.90;;;;;;937288;148;27410;-79
2022/10/01 01:38:06;;;;;;;3.83;3.53;;;10.20;96.90;;;;;;935802;148;27275;-79
2022/10/01 01:40:35;;;;;;;7.47;3.67;;;10.30;97.00;;;;;;935857;148;27387;-79
2022/10/01 01:42:59;;;;;;;4.50;3.67;;;10.30;97.00;;;;;;937055;148;27652;-79
2022/10/01 01:45:27;;;;;;;3.60;3.30;;;10.40;97.20;;;;;;937614;148;27339;-79
2022/10/01 01:47:54;;;;;;;3.67;3.33;;;10.40;97.10;;;;;;937072;148;27327;-78
2022/10/01 01:50:18;;;;;;;3.87;3.60;;;10.50;97.10;;;;;;937024;148;27338;-78
2022/10/01 01:52:45;;;;;;;4.10;3.70;;;10.50;97.20;;;;;;937548;148;27334;-79
2022/10/01 01:55:12;;;;;;;4.67;4.07;;;10.60;97.20;;;;;;937509;148;27297;-79
2022/10/01 01:57:41;;;;;;;4.03;3.73;;;10.60;97.10;;;;;;937979;148;27466;-78
2022/10/01 02:00:08;;;;;;;5.60;3.63;;;10.60;97.00;;;;;;937124;151;27409;-79
2022/10/01 02:02:34;;;;;;;5.20;4.63;;;10.70;96.90;;;;;;938094;148;27399;-79
2022/10/01 02:05:02;;;;;;;4.20;3.80;;;10.70;97.10;;;;;;937832;148;27383;-79
2022/10/01 02:07:33;;;;;;;5.27;3.83;;;10.80;97.10;;;;;;938100;148;27333;-79
2022/10/01 02:10:11;;;;;;;3.77;3.47;;;10.80;96.90;;;;;;943594;148;27826;-79
2022/10/01 02:12:53;;;;;;;3.70;3.40;;;10.80;96.90;;;;;;943889;148;27284;-79
2022/10/01 02:15:30;;;;;;;4.00;3.63;;;10.80;96.80;;;;;;944651;148;27313;-78
2022/10/01 02:17:58;;;;;;;3.90;3.53;;;10.90;96.70;;;;;;940500;148;27502;-79
2022/10/01 02:20:24;;;;;;;4.53;3.63;;;10.90;96.80;;;;;;930119;151;27642;-79
2022/10/01 02:22:51;;;;;;;3.77;3.47;;;10.90;96.90;;;;;;933842;150;27314;-78
2022/10/01 02:25:19;;;;;;;4.30;3.27;;;10.90;97.00;;;;;;943126;148;27317;-79
2022/10/01 02:27:48;;;;;;;4.17;3.33;;;11.00;97.10;;;;;;944055;148;27302;-80
2022/10/01 02:30:15;;;;;;;3.40;3.10;;;11.00;97.10;;;;;;940228;148;27409;-80
2022/10/01 02:32:41;;;;;;;3.40;3.10;;;11.00;97.10;;;;;;937617;148;27326;-80
2022/10/01 02:35:08;;;;;;;3.93;3.63;;;11.00;97.10;;;;;;937436;148;27302;-80
2022/10/01 02:37:35;;;;;;;3.77;3.47;;;11.10;97.30;;;;;;937738;148;27350;-81
2022/10/01 02:40:01;;;;;;;4.20;3.80;;;11.10;97.30;;;;;;937588;150;28528;-80
2022/10/01 02:42:28;;;;;;;5.30;3.47;;;11.10;97.10;;;;;;937235;150;27330;-81
2022/10/01 02:44:54;;;;;;;3.77;3.40;;;11.20;97.40;;;;;;937115;151;27291;-80
2022/10/01 02:47:21;;;;;;;4.03;3.73;;;11.20;97.30;;;;;;937828;148;27481;-80
2022/10/01 02:49:47;;;;;;;3.70;3.40;;;11.20;97.50;;;;;;937129;152;27348;-80
2022/10/01 02:52:26;;;;;;;4.30;3.90;;;11.30;97.40;;;;;;937806;148;27299;-81
2022/10/01 02:55:11;;;;;;;3.90;3.60;;;11.30;97.30;;;;;;938624;148;27431;-81
2022/10/01 02:57:38;;;;;;;3.53;3.23;;;11.30;97.10;;;;;;937803;151;27335;-82
2022/10/01 03:00:05;;;;;;;4.33;2.90;;;11.40;97.20;;;;;;937863;148;27404;-81
2022/10/01 03:02:31;;;;;;;4.50;3.20;;;11.40;97.10;;;;;;937717;148;27482;-80
2022/10/01 03:04:57;;;;;;;4.10;3.70;;;11.40;97.20;;;;;;937997;148;27369;-81
2022/10/01 03:07:24;;;;;;;3.57;3.27;;;11.50;97.00;;;;;;938317;148;27389;-81
2022/10/01 03:09:50;;;;;;;3.70;3.40;;;11.50;97.10;;;;;;937296;148;27347;-81
2022/10/01 03:12:17;;;;;;;3.50;3.20;;;11.50;97.10;;;;;;937362;148;27404;-81
2022/10/01 03:14:44;;;;;;;6.73;3.50;;;11.50;97.10;;;;;;938225;148;27412;-81
2022/10/01 03:17:10;;;;;;;3.37;3.03;;;11.60;97.10;;;;;;937750;151;27363;-81
2022/10/01 03:19:37;;;;;;;3.43;3.13;;;11.60;97.00;;;;;;937305;148;27338;-81
2022/10/01 03:22:03;;;;;;;4.47;3.27;;;11.60;97.00;;;;;;938335;148;27643;-81
2022/10/01 03:24:30;;;;;;;3.17;2.97;;;11.60;96.80;;;;;;938384;148;27314;-81
2022/10/01 03:26:57;;;;;;;3.10;2.70;;;11.60;96.80;;;;;;938384;148;27447;-81
2022/10/01 03:29:23;;;;;;;2.83;2.53;;;11.70;96.80;;;;;;937886;148;27431;-81
2022/10/01 03:31:50;;;;;;;3.00;2.80;;;11.70;96.80;;;;;;937477;148;27403;-82
2022/10/01 03:34:16;;;;;;;4.27;2.83;;;11.70;96.80;;;;;;938137;148;27399;-81
2022/10/01 03:36:43;;;;;;;3.00;2.50;;;11.70;96.90;;;;;;938274;148;27777;-81
2022/10/01 03:39:10;;;;;;;3.67;2.40;;;11.80;97.00;;;;;;937570;148;27447;-81
2022/10/01 03:41:36;;;;;;;2.57;2.30;;;11.80;97.10;;;;;;917104;151;27363;-82
2022/10/01 03:44:03;;;;;;;2.40;2.20;;;11.80;97.00;;;;;;921577;151;27404;-81
2022/10/01 03:46:29;;;;;;;3.07;2.30;;;11.90;97.00;;;;;;928536;150;28481;-81
2022/10/01 03:48:56;;;;;;;2.30;2.10;;;11.90;97.10;;;;;;938811;151;27330;-81
2022/10/01 03:51:22;;;;;;;2.30;2.20;;;12.00;97.00;;;;;;938884;152;27302;-81
2022/10/01 03:53:49;;;;;;;2.57;2.17;;;12.00;97.00;;;;;;939135;152;27350;-82
2022/10/01 03:56:16;;;;;;;2.80;2.37;;;12.10;97.10;;;;;;939057;152;27942;-82
2022/10/01 03:58:42;;;;;;;2.57;2.33;;;12.10;97.10;;;;;;938660;150;27294;-82
2022/10/01 04:01:09;;;;;;;2.70;1.90;;;12.20;97.10;;;;;;938956;149;27302;-80
2022/10/01 04:03:35;;;;;;;3.40;2.80;;;12.30;97.00;;;;;;939289;148;27878;-81
2022/10/01 04:06:02;;;;;;;2.33;2.13;;;12.30;96.90;;;;;;944789;148;27454;-81
2022/10/01 04:08:29;;;;;;;2.10;2.00;;;12.40;96.70;;;;;;944063;148;27334;-81
2022/10/01 04:10:55;;;;;;;2.33;2.17;;;12.50;96.70;;;;;;942255;148;27352;-82
2022/10/01 04:13:22;;;;;;;3.07;2.00;;;12.50;96.60;;;;;;943995;152;27289;-81
2022/10/01 04:15:48;;;;;;;2.33;2.20;;;12.60;96.60;;;;;;944603;148;27450;-80
2022/10/01 04:18:18;;;;;;;2.60;1.90;;;12.60;96.50;;;;;;944027;148;27355;-82
2022/10/01 04:20:41;;;;;;;2.20;2.00;;;12.70;96.40;;;;;;944484;148;27385;-82
2022/10/01 04:23:08;;;;;;;2.10;1.90;;;12.70;96.40;;;;;;944367;148;27328;-81
2022/10/01 04:25:35;;;;;;;2.20;2.10;;;12.80;96.30;;;;;;945502;148;27298;-81
2022/10/01 04:28:01;;;;;;;2.00;1.90;;;12.80;96.30;;;;;;943474;148;27715;-81
2022/10/01 04:30:28;;;;;;;2.30;2.10;;;12.80;96.20;;;;;;944363;148;27458;-82
2022/10/01 04:32:54;;;;;;;3.70;1.90;;;12.90;96.30;;;;;;944149;148;27345;-81
2022/10/01 04:35:21;;;;;;;1.90;1.80;;;12.90;96.20;;;;;;944287;148;27387;-81
2022/10/01 04:37:48;;;;;;;1.97;1.87;;;13.00;96.10;;;;;;945520;148;27428;-81
2022/10/01 04:40:14;;;;;;;3.13;1.70;;;13.00;96.10;;;;;;943732;148;27374;-81
2022/10/01 04:42:42;;;;;;;2.50;2.30;;;13.00;96.10;;;;;;945656;148;27357;-81
2022/10/01 04:45:08;;;;;;;2.00;1.80;;;13.00;96.10;;;;;;943612;148;27739;-82
2022/10/01 04:47:34;;;;;;;2.00;1.80;;;13.10;96.00;;;;;;944329;148;27368;-81
2022/10/01 04:50:01;;;;;;;1.70;1.60;;;13.10;96.00;;;;;;944144;148;27329;-81
2022/10/01 04:52:28;;;;;;;2.93;1.73;;;13.10;96.00;;;;;;943882;148;27786;-81
2022/10/01 04:54:54;;;;;;;1.83;1.73;;;13.10;96.10;;;;;;944315;148;27329;-81
2022/10/01 04:57:20;;;;;;;1.77;1.67;;;13.10;96.20;;;;;;944255;148;28426;-82
2022/10/01 04:59:47;;;;;;;1.90;1.80;;;13.10;96.20;;;;;;944478;148;27328;-80
2022/10/01 05:02:14;;;;;;;2.00;1.90;;;13.10;96.20;;;;;;944232;148;27435;-81
2022/10/01 05:04:40;;;;;;;4.70;2.20;;;13.10;96.30;;;;;;943998;148;27390;-80
2022/10/01 05:07:07;;;;;;;1.77;1.67;;;13.10;96.30;;;;;;943561;148;27449;-81
2022/10/01 05:09:34;;;;;;;2.30;1.90;;;13.10;96.50;;;;;;943646;148;27353;-81
2022/10/01 05:12:00;;;;;;;2.10;2.00;;;13.00;96.50;;;;;;953575;147;27292;-81
2022/10/01 05:14:27;;;;;;;2.00;1.90;;;13.00;96.60;;;;;;954947;147;27282;-81
2022/10/01 05:16:53;;;;;;;2.77;1.77;;;13.00;96.60;;;;;;945242;148;27286;-80
2022/10/01 05:19:20;;;;;;;1.80;1.70;;;13.00;96.70;;;;;;944753;148;27341;-80
2022/10/01 05:21:46;;;;;;;1.80;1.70;;;13.00;96.90;;;;;;943091;148;27442;-81
2022/10/01 05:24:14;;;;;;;2.63;1.80;;;13.00;96.90;;;;;;943287;148;27298;-81
2022/10/01 05:26:40;;;;;;;2.10;1.90;;;13.00;96.90;;;;;;944481;148;27297;-81
2022/10/01 05:29:06;;;;;;;2.37;1.40;;;13.00;97.00;;;;;;944299;148;27301;-80
2022/10/01 05:31:33;;;;;;;1.83;1.73;;;13.00;97.10;;;;;;944392;148;27325;-81
2022/10/01 05:33:59;;;;;;;3.20;1.70;;;12.90;97.10;;;;;;944788;148;28140;-81
2022/10/01 05:36:26;;;;;;;4.20;2.10;;;13.00;97.20;;;;;;944767;148;27359;-81
2022/10/01 05:38:52;;;;;;;1.90;1.70;;;12.90;97.40;;;;;;943220;148;27375;-81
2022/10/01 05:41:19;;;;;;;1.77;1.67;;;12.90;97.40;;;;;;944227;148;27344;-80
2022/10/01 05:43:46;;;;;;;2.30;2.03;;;12.90;97.50;;;;;;944299;148;27352;-82
2022/10/01 05:46:12;;;;;;;1.97;1.87;;;12.90;97.70;;;;;;943958;148;27880;-81
2022/10/01 05:48:39;;;;;;;1.60;1.50;;;12.90;97.90;;;;;;943690;148;27427;-80
2022/10/01 05:51:07;;;;;;;1.80;1.70;;;12.90;97.90;;;;;;943652;148;27292;-81
2022/10/01 05:53:32;;;;;;;2.20;2.00;;;12.90;98.10;;;;;;944358;148;27371;-80
2022/10/01 05:56:01;;;;;;;1.73;1.60;;;12.90;98.30;;;;;;944803;148;27447;-80
2022/10/01 05:58:26;;;;;;;2.13;1.90;;;12.90;98.20;;;;;;944119;148;27373;-80
2022/10/01 06:00:52;;;;;;;2.20;1.70;;;12.90;98.20;;;;;;944777;148;27325;-81
2022/10/01 06:03:18;;;;;;;1.80;1.70;;;12.90;98.40;;;;;;943674;148;27298;-81
2022/10/01 06:05:45;;;;;;;3.57;2.10;;;12.90;98.40;;;;;;945371;148;27314;-81
2022/10/01 06:08:11;;;;;;;2.00;1.90;;;12.90;98.50;;;;;;944495;148;27402;-81
2022/10/01 06:10:38;;;;;;;2.83;1.93;;;12.90;98.60;;;;;;945463;148;27393;-81
2022/10/01 06:13:05;;;;;;;4.97;1.90;;;12.90;98.60;;;;;;944574;148;27860;-81
2022/10/01 06:15:33;;;;;;;2.17;1.97;;;12.90;98.70;;;;;;944231;148;27314;-81
2022/10/01 06:17:58;;;;;;;2.77;2.20;;;12.80;98.70;;;;;;945233;148;27266;-81
2022/10/01 06:20:24;;;;;;;1.80;1.70;;;12.90;98.80;;;;;;943315;148;27439;-80
2022/10/01 06:22:54;;;;;;;2.17;2.03;;;12.80;99.00;;;;;;944299;148;27442;-81
2022/10/01 06:25:21;;;;;;;2.13;1.90;;;12.80;99.10;;;;;;944122;148;27507;-81
2022/10/01 06:27:55;;;;;;;2.90;1.90;;;12.80;99.20;;;;;;944498;148;27360;-81
2022/10/01 06:30:20;;;;;;;1.97;1.87;;;12.80;99.30;;;;;;943023;148;27309;-81
2022/10/01 06:32:47;;;;;;;2.10;1.90;;;12.80;99.20;;;;;;944252;148;27437;-81
2022/10/01 06:35:13;;;;;;;2.13;1.90;;;12.80;99.40;;;;;;944342;148;27425;-80
2022/10/01 06:37:40;;;;;;;2.47;2.03;;;12.80;99.50;;;;;;944006;148;27442;-81
2022/10/01 06:40:06;;;;;;;2.43;2.00;;;12.80;99.70;;;;;;943752;148;27449;-81
2022/10/01 06:42:33;;;;;;;3.23;2.20;;;12.80;99.70;;;;;;944797;148;27366;-81
2022/10/01 06:45:00;;;;;;;2.07;1.90;;;12.80;99.80;;;;;;944733;148;27285;-81
2022/10/01 06:47:26;;;;;;;2.73;1.67;;;12.90;99.90;;;;;;944318;148;27450;-80
2022/10/01 06:49:53;;;;;;;2.20;2.00;;;12.90;99.90;;;;;;943790;148;27353;-80
2022/10/01 06:55:04;;;;;;;1.90;1.80;;;12.90;99.90;;;;;;944210;148;27318;-81
2022/10/01 06:57:32;;;;;;;2.33;2.13;;;12.90;99.90;;;;;;943223;148;27856;-80
2022/10/01 06:59:58;;;;;;;2.33;2.07;;;12.90;99.90;;;;;;943751;148;27353;-80
2022/10/01 07:02:26;;;;;;;2.03;1.83;;;12.90;99.90;;;;;;943664;148;27779;-81
2022/10/01 07:04:50;;;;;;;2.10;1.83;;;12.90;99.90;;;;;;943870;148;27329;-80
2022/10/01 07:07:17;;;;;;;2.53;1.63;;;12.90;99.90;;;;;;944086;148;27400;-81
2022/10/01 07:09:43;;;;;;;2.90;2.10;;;13.00;99.90;;;;;;944105;148;27294;-80
2022/10/01 07:12:10;;;;;;;2.07;1.90;;;13.00;99.90;;;;;;942625;148;27370;-80
2022/10/01 07:14:37;;;;;;;3.00;1.90;;;13.00;99.90;;;;;;937688;149;27346;-80
2022/10/01 07:17:03;;;;;;;2.10;1.83;;;13.00;99.90;;;;;;938026;148;27458;-80
2022/10/01 07:19:30;;;;;;;1.70;1.60;;;13.00;99.90;;;;;;936964;148;27886;-81
2022/10/01 07:21:56;;;;;;;2.47;1.87;;;13.10;99.90;;;;;;938131;148;27289;-80
2022/10/01 07:24:23;;;;;;;2.47;1.80;;;13.10;99.90;;;;;;937529;148;27295;-80
2022/10/01 07:26:50;;;;;;;2.30;2.10;;;13.10;99.90;;;;;;937290;149;27369;-79
2022/10/01 07:29:16;;;;;;;1.73;1.63;;;13.10;99.90;;;;;;936378;148;27338;-80
2022/10/01 07:31:43;;;;;;;1.70;1.53;;;13.20;99.90;;;;;;937590;148;27319;-80
2022/10/01 07:34:09;;;;;;;1.60;1.50;;;13.20;99.90;;;;;;937255;150;27346;-81
2022/10/01 07:36:36;;;;;;;2.43;1.83;;;13.20;99.90;;;;;;937407;148;27771;-80
2022/10/01 07:39:02;;;;;;;2.37;1.53;;;13.20;99.90;;;;;;937322;148;27306;-79
2022/10/01 07:41:29;;;;;;;2.17;1.47;;;13.30;99.90;;;;;;938996;148;27369;-80
2022/10/01 07:43:56;;;;;;;1.63;1.53;;;13.30;99.90;;;;;;938154;148;27350;-80
2022/10/01 07:46:22;;;;;;;1.37;1.33;;;13.30;99.90;;;;;;937759;148;27261;-80
2022/10/01 07:48:49;;;;;;;1.60;1.50;;;13.30;99.90;;;;;;936819;148;27471;-80
2022/10/01 07:51:16;;;;;;;1.83;1.50;;;13.40;99.90;;;;;;937808;148;27342;-80
2022/10/01 07:53:42;;;;;;;2.23;1.70;;;13.40;99.90;;;;;;937078;148;27443;-81
2022/10/01 07:56:09;;;;;;;1.63;1.53;;;13.40;99.90;;;;;;937784;147;27338;-79
2022/10/01 07:58:35;;;;;;;2.57;1.60;;;13.40;99.90;;;;;;937452;148;27747;-81
2022/10/01 08:01:05;;;;;;;1.87;1.77;;;13.40;99.90;;;;;;938964;149;27430;-80
2022/10/01 08:03:31;;;;;;;2.03;1.87;;;13.50;99.90;;;;;;938671;148;27342;-81
2022/10/01 08:05:58;;;;;;;1.93;1.80;;;13.50;99.90;;;;;;938972;150;27415;-80
2022/10/01 08:08:25;;;;;;;2.17;1.93;;;13.50;99.90;;;;;;938101;148;27366;-80
2022/10/01 08:10:51;;;;;;;3.00;1.80;;;13.50;99.90;;;;;;937757;148;27345;-81
2022/10/01 08:13:19;;;;;;;1.83;1.73;;;13.50;99.90;;;;;;941620;147;27941;-80
2022/10/01 08:15:44;;;;;;;2.00;1.73;;;13.60;99.90;;;;;;948295;147;27294;-80
2022/10/01 08:18:11;;;;;;;3.53;2.00;;;13.60;99.90;;;;;;943918;148;27357;-80
2022/10/01 08:20:40;;;;;;;2.93;2.13;;;13.60;99.90;;;;;;945230;148;27345;-81
2022/10/01 08:23:07;;;;;;;10.60;4.47;;;13.60;99.90;;;;;;944057;148;27452;-80
2022/10/01 08:25:33;;;;;;;7.57;3.10;;;13.60;99.90;;;;;;943948;148;27426;-81
2022/10/01 08:28:00;;;;;;;3.90;2.70;;;13.70;99.90;;;;;;943073;148;27338;-80
2022/10/01 08:30:27;;;;;;;2.17;1.80;;;13.70;99.90;;;;;;945125;148;27479;-80
2022/10/01 08:32:53;;;;;;;3.97;2.20;;;13.70;99.90;;;;;;944896;148;27466;-81
2022/10/01 08:35:20;;;;;;;4.80;2.33;;;13.70;99.90;;;;;;944490;148;27430;-81
2022/10/01 08:37:46;;;;;;;5.27;2.80;;;13.70;99.90;;;;;;944247;151;27433;-81
2022/10/01 08:40:13;;;;;;;4.30;2.47;;;13.70;99.90;;;;;;944236;148;27769;-81
2022/10/01 08:42:46;;;;;;;1.90;1.70;;;13.70;99.90;;;;;;944578;149;27406;-80
2022/10/01 08:45:33;;;;;;;1.37;1.30;;;13.80;99.90;;;;;;924366;148;27453;-81
2022/10/01 08:48:05;;;;;;;6.90;3.50;;;13.80;99.90;;;;;;943101;148;27419;-80
2022/10/01 08:50:34;;;;;;;4.00;2.27;;;13.80;99.90;;;;;;943789;148;27306;-81
2022/10/01 08:53:01;;;;;;;3.57;2.10;;;13.80;99.90;;;;;;944007;148;27435;-80
2022/10/01 08:55:28;;;;;;;1.50;1.40;;;13.80;99.90;;;;;;943899;148;27381;-81
2022/10/01 08:57:54;;;;;;;1.67;1.57;;;13.80;99.90;;;;;;944627;148;27337;-81
2022/10/01 09:00:21;;;;;;;5.60;2.77;;;13.80;99.90;;;;;;943958;148;27348;-81
2022/10/01 09:02:48;;;;;;;2.23;1.73;;;13.90;99.90;;;;;;944690;148;27478;-81
2022/10/01 09:05:41;;;;;;;1.82;1.47;;;13.90;99.90;;;;;;943712;148;27390;-80
2022/10/01 09:08:44;;;;;;;2.80;1.50;;;13.90;99.90;;;;;;944434;148;27341;-81
2022/10/01 09:11:29;;;;;;;8.33;3.62;;;14.00;99.90;;;;;;944095;148;27952;-81
2022/10/01 09:14:23;;;;;;;4.87;2.70;;;14.00;99.90;;;;;;943531;148;27413;-81
2022/10/01 09:16:55;;;;;;;5.00;2.67;;;14.00;99.90;;;;;;940150;148;27955;-81
2022/10/01 09:19:53;;;;;;;4.40;2.40;;;14.00;99.90;;;;;;936275;148;27274;-80
2022/10/01 09:22:34;;;;;;;2.77;1.83;;;14.10;99.90;;;;;;942608;148;27282;-81
2022/10/01 09:25:19;;;;;;;5.92;3.08;;;14.10;99.90;;;;;;942510;148;27315;-80
2022/10/01 09:27:45;;;;;;;4.40;2.50;;;14.10;99.90;;;;;;937777;149;27314;-80
2022/10/01 09:30:21;;;;;;;5.97;2.77;;;14.10;99.90;;;;;;937196;148;27370;-80
2022/10/01 09:32:50;;;;;;;2.35;1.55;;;14.10;99.90;;;;;;936724;148;27387;-79
2022/10/01 09:35:20;;;;;;;1.05;0.90;;;14.20;99.90;;;;;;936577;148;27322;-80
2022/10/01 09:37:56;;;;;;;1.43;1.00;;;14.20;99.90;;;;;;923277;152;27361;-82
2022/10/01 09:40:37;;;;;;;0.80;0.80;;;14.30;99.90;;;;;;937940;148;27342;-81
2022/10/01 09:43:06;;;;;;;3.05;1.00;;;14.40;99.90;;;;;;937034;151;27369;-80
2022/10/01 09:45:30;;;;;;;8.10;2.72;;;14.40;99.90;;;;;;937350;149;27419;-80
2022/10/01 09:47:57;;;;;;;3.05;1.27;;;14.50;99.90;;;;;;937702;150;27351;-81
2022/10/01 09:50:32;;;;;;;1.53;1.20;;;14.60;99.90;;;;;;936111;152;27325;-80
2022/10/01 09:52:59;;;;;;;4.22;1.32;;;14.60;99.90;;;;;;929846;152;27404;-80
2022/10/01 09:55:34;;;;;;;1.30;1.10;;;14.70;99.90;;;;;;937929;148;27326;-80
2022/10/01 09:58:04;;;;;;;14.18;4.55;;;14.70;99.90;;;;;;938286;149;27521;-80
2022/10/01 10:00:30;;;;;;;2.50;1.37;;;14.80;99.90;;;;;;936623;152;27323;-81
2022/10/01 10:02:57;;;;;;;6.67;2.60;;;14.80;99.90;;;;;;937198;148;27367;-80
2022/10/01 10:05:24;;;;;;;4.25;1.82;;;14.90;99.90;;;;;;938074;149;27383;-80
2022/10/01 10:07:59;;;;;;;4.87;2.12;;;14.90;99.90;;;;;;937673;148;27817;-80
2022/10/01 10:10:26;;;;;;;16.63;11.20;;;14.90;99.90;;;;;;942609;152;27364;-80
2022/10/01 10:13:01;;;;;;;5.60;5.07;;;14.90;99.90;;;;;;942034;152;27375;-80
2022/10/01 10:15:31;;;;;;;5.43;4.93;;;15.00;99.90;;;;;;944384;148;27435;-80
2022/10/01 10:17:54;;;;;;;3.27;3.05;;;14.90;99.90;;;;;;944741;148;27343;-80
2022/10/01 10:20:27;;;;;;;4.37;3.75;;;15.00;99.90;;;;;;942960;148;27398;-80
2022/10/01 10:22:53;;;;;;;1.40;1.30;;;15.10;99.90;;;;;;944398;148;28787;-81
2022/10/01 10:25:20;;;;;;;3.72;3.42;;;15.10;99.90;;;;;;944625;148;27558;-80
2022/10/01 10:27:54;;;;;;;3.65;3.35;;;15.20;99.90;;;;;;944218;148;27345;-80
2022/10/01 10:30:19;;;;;;;5.53;4.92;;;15.30;99.90;;;;;;943660;148;27439;-80
2022/10/01 10:32:48;;;;;;;3.00;2.80;;;15.40;99.90;;;;;;944307;148;27446;-81
2022/10/01 10:35:15;;;;;;;3.42;3.12;;;15.40;99.90;;;;;;944554;148;27418;-80
2022/10/01 10:37:50;;;;;;;2.37;1.80;;;15.40;99.90;;;;;;944075;148;27419;-80
2022/10/01 10:40:23;;;;;;;9.65;3.50;;;15.50;99.70;;;;;;944172;148;27371;-81
2022/10/01 10:42:49;;;;;;;5.28;2.58;;;15.50;99.90;;;;;;943402;148;27435;-80
2022/10/01 10:45:19;;;;;;;3.47;2.10;;;15.60;99.90;;;;;;943464;148;27352;-81
2022/10/01 10:47:48;;;;;;;2.85;1.20;;;15.60;99.90;;;;;;943565;148;27354;-81
2022/10/01 10:50:28;;;;;;;0.90;0.75;;;15.70;99.90;;;;;;942865;148;27293;-82
2022/10/01 10:52:53;;;;;;;7.58;2.17;;;15.90;99.90;;;;;;943667;148;27304;-80
2022/10/01 10:55:22;;;;;;;2.25;1.47;;;16.00;99.90;;;;;;944478;148;27426;-81
2022/10/01 10:57:49;;;;;;;1.82;1.30;;;16.20;99.90;;;;;;944140;148;27370;-83
2022/10/01 11:00:16;;;;;;;7.58;2.65;;;16.30;99.90;;;;;;932080;151;27284;-80
2022/10/01 11:02:51;;;;;;;3.77;1.75;;;16.50;99.90;;;;;;927072;151;27368;-80
2022/10/01 11:05:18;;;;;;;3.47;1.52;;;16.70;99.90;;;;;;933048;151;27344;-80
2022/10/01 11:07:44;;;;;;;2.92;1.30;;;16.90;99.90;;;;;;926839;151;27399;-80
2022/10/01 11:10:29;;;;;;;6.83;2.92;;;17.10;98.90;;;;;;926850;150;27452;-81
2022/10/01 11:13:05;;;;;;;5.15;2.37;;;17.20;97.80;;;;;;926338;151;27256;-81
2022/10/01 11:15:34;;;;;;;2.42;1.40;;;17.30;96.60;;;;;;932320;151;27516;-80
2022/10/01 11:18:22;;;;;;;1.98;0.90;;;17.30;96.10;;;;;;933008;150;27346;-80
2022/10/01 11:20:52;;;;;;;4.37;1.52;;;17.30;96.10;;;;;;932587;150;27989;-80
2022/10/01 11:23:28;;;;;;;5.33;2.20;;;17.30;96.10;;;;;;932087;151;27387;-81
2022/10/01 11:25:57;;;;;;;6.28;2.15;;;17.40;95.90;;;;;;932301;151;27677;-80
2022/10/01 11:28:45;;;;;;;7.00;2.30;;;17.40;95.30;;;;;;933466;151;27435;-81
2022/10/01 11:31:11;;;;;;;12.68;3.12;;;17.40;95.50;;;;;;933662;151;27479;-80
2022/10/01 11:33:44;;;;;;;7.50;2.02;;;17.40;96.00;;;;;;931313;150;27420;-80
2022/10/01 11:36:19;;;;;;;7.55;1.70;;;17.50;96.10;;;;;;930822;151;27487;-80
2022/10/01 11:38:57;;;;;;;2.50;1.05;;;17.50;96.10;;;;;;932933;151;27874;-81
2022/10/01 11:41:41;;;;;;;3.40;1.85;;;17.60;96.00;;;;;;933596;151;27339;-80
2022/10/01 11:44:14;;;;;;;4.22;1.47;;;17.70;95.30;;;;;;933078;151;27389;-80
2022/10/01 11:46:52;;;;;;;3.72;1.20;;;17.80;94.90;;;;;;932663;151;27526;-81
2022/10/01 11:49:28;;;;;;;1.77;1.10;;;17.80;94.40;;;;;;932445;151;27460;-81
2022/10/01 11:52:32;;;;;;;1.57;1.37;;;17.90;94.40;;;;;;933719;151;27373;-81
2022/10/01 12:00:40;;;;;;;1.87;1.10;;;18.10;95.00;;;;;;933913;151;27350;-82
2022/10/01 12:03:06;;;;;;;6.25;1.67;;;18.20;95.30;;;;;;933496;151;27475;-81
2022/10/01 12:05:33;;;;;;;2.20;1.10;;;18.30;95.50;;;;;;933113;151;27377;-82
2022/10/01 12:08:01;;;;;;;6.37;1.98;;;18.50;95.30;;;;;;933744;153;27427;-82
2022/10/01 12:10:29;;;;;;;8.83;2.95;;;18.60;94.90;;;;;;933400;151;27679;-81
2022/10/01 12:13:02;;;;;;;2.25;1.32;;;18.70;93.80;;;;;;931141;151;27435;-82
2022/10/01 12:15:31;;;;;;;4.08;1.80;;;18.90;93.20;;;;;;930882;151;27460;-81
2022/10/01 12:18:05;;;;;;;3.08;1.52;;;18.90;92.50;;;;;;915280;153;27327;-81
2022/10/01 12:20:35;;;;;;;3.58;1.50;;;19.00;91.90;;;;;;912475;153;27381;-81
2022/10/01 12:23:02;;;;;;;4.53;1.85;;;19.00;91.20;;;;;;912466;153;27450;-81
2022/10/01 12:25:28;;;;;;;2.52;1.30;;;19.00;90.80;;;;;;913496;153;27376;-82
2022/10/01 12:28:03;;;;;;;2.62;1.45;;;18.90;90.50;;;;;;911950;153;27489;-81
2022/10/01 12:30:36;;;;;;;4.67;2.15;;;18.90;90.80;;;;;;912332;152;27341;-81
2022/10/01 12:33:27;;;;;;;3.62;1.47;;;18.90;90.80;;;;;;912491;153;27314;-82
2022/10/01 12:35:57;;;;;;;4.33;1.75;;;18.90;90.70;;;;;;913338;153;27312;-82
2022/10/01 12:38:26;;;;;;;2.98;1.42;;;18.90;90.40;;;;;;912608;153;27369;-81
2022/10/01 12:41:02;;;;;;;8.03;2.33;;;18.90;90.20;;;;;;913018;153;27379;-82
2022/10/01 12:43:49;;;;;;;2.85;1.70;;;18.80;90.20;;;;;;912593;152;27314;-82
2022/10/01 12:46:29;;;;;;;3.65;2.25;;;18.80;90.20;;;;;;912571;153;27429;-81
2022/10/01 12:49:25;;;;;;;3.77;1.62;;;18.80;90.30;;;;;;912438;153;27357;-81
2022/10/01 12:51:54;;;;;;;4.95;2.08;;;18.70;90.40;;;;;;891344;154;27459;-81
2022/10/01 12:54:42;;;;;;;6.20;2.50;;;18.80;90.60;;;;;;909581;155;27447;-82
2022/10/01 12:57:23;;;;;;;2.85;1.40;;;18.70;90.70;;;;;;911516;153;27403;-80
2022/10/01 12:59:58;;;;;;;4.90;1.60;;;18.70;90.80;;;;;;899916;153;27502;-81
2022/10/01 13:02:25;;;;;;;4.90;2.00;;;18.80;90.60;;;;;;912873;153;27798;-81
2022/10/01 13:04:58;;;;;;;2.52;1.62;;;18.80;90.50;;;;;;913139;153;27709;-81
2022/10/01 13:07:31;;;;;;;1.20;1.10;;;18.70;90.40;;;;;;912316;153;27324;-81